sensor_id;sensor_type;location;lat;lon;timestamp;temperature;humidity
1347;DHT22;667;48.796;9.480;2023-07-31T00:01:20;18.60;74.50
1347;DHT22;667;48.796;9.480;2023-07-31T00:03:47;18.60;74.70
1347;DHT22;667;48.796;9.480;2023-07-31T00:06:12;18.60;74.60
1347;DHT22;667;48.796;9.480;2023-07-31T00:08:38;18.60;74.50
1347;DHT22;667;48.796;9.480;2023-07-31T00:11:03;18.60;74.30
1347;DHT22;667;48.796;9.480;2023-07-31T00:13:29;18.60;74.60
1347;DHT22;667;48.796;9.480;2023-07-31T00:15:55;18.50;74.80
1347;DHT22;667;48.796;9.480;2023-07-31T00:18:20;18.50;74.80
1347;DHT22;667;48.796;9.480;2023-07-31T00:20:46;18.50;75.00
1347;DHT22;667;48.796;9.480;2023-07-31T00:23:12;18.40;75.00
1347;DHT22;667;48.796;9.480;2023-07-31T00:25:37;18.40;75.20
1347;DHT22;667;48.796;9.480;2023-07-31T00:28:03;18.40;75.40
1347;DHT22;667;48.796;9.480;2023-07-31T00:30:28;18.40;75.30
1347;DHT22;667;48.796;9.480;2023-07-31T00:32:54;18.40;75.30
1347;DHT22;667;48.796;9.480;2023-07-31T00:35:20;18.30;75.00
1347;DHT22;667;48.796;9.480;2023-07-31T00:37:45;18.40;75.40
1347;DHT22;667;48.796;9.480;2023-07-31T00:40:11;18.30;75.60
1347;DHT22;667;48.796;9.480;2023-07-31T00:42:36;18.30;75.50
1347;DHT22;667;48.796;9.480;2023-07-31T00:45:02;18.30;75.20
1347;DHT22;667;48.796;9.480;2023-07-31T00:47:28;18.30;75.10
1347;DHT22;667;48.796;9.480;2023-07-31T00:49:53;18.30;75.20
1347;DHT22;667;48.796;9.480;2023-07-31T00:52:20;18.20;75.20
1347;DHT22;667;48.796;9.480;2023-07-31T00:54:46;18.20;75.30
1347;DHT22;667;48.796;9.480;2023-07-31T00:57:12;18.20;75.40
1347;DHT22;667;48.796;9.480;2023-07-31T00:59:37;18.20;75.40
1347;DHT22;667;48.796;9.480;2023-07-31T01:02:03;18.20;75.60
1347;DHT22;667;48.796;9.480;2023-07-31T01:04:29;18.10;75.50
1347;DHT22;667;48.796;9.480;2023-07-31T01:07:31;18.10;75.50
1347;DHT22;667;48.796;9.480;2023-07-31T01:12:23;18.10;74.90
1347;DHT22;667;48.796;9.480;2023-07-31T01:15:05;18.00;74.70
1347;DHT22;667;48.796;9.480;2023-07-31T01:17:31;18.00;75.30
1347;DHT22;667;48.796;9.480;2023-07-31T01:20:00;18.00;75.60
1347;DHT22;667;48.796;9.480;2023-07-31T01:25:36;17.90;75.70
1347;DHT22;667;48.796;9.480;2023-07-31T01:28:07;17.90;75.70
1347;DHT22;667;48.796;9.480;2023-07-31T01:30:39;17.90;75.80
1347;DHT22;667;48.796;9.480;2023-07-31T01:33:06;17.90;76.10
1347;DHT22;667;48.796;9.480;2023-07-31T01:35:37;17.80;76.00
1347;DHT22;667;48.796;9.480;2023-07-31T01:38:03;17.80;76.10
1347;DHT22;667;48.796;9.480;2023-07-31T01:40:29;17.80;75.90
1347;DHT22;667;48.796;9.480;2023-07-31T01:42:55;17.80;75.60
1347;DHT22;667;48.796;9.480;2023-07-31T01:45:20;17.80;75.50
1347;DHT22;667;48.796;9.480;2023-07-31T01:47:46;17.80;75.60
1347;DHT22;667;48.796;9.480;2023-07-31T01:50:12;17.80;75.90
1347;DHT22;667;48.796;9.480;2023-07-31T01:52:38;17.70;75.90
1347;DHT22;667;48.796;9.480;2023-07-31T01:55:03;17.70;76.00
1347;DHT22;667;48.796;9.480;2023-07-31T01:57:29;17.70;75.50
1347;DHT22;667;48.796;9.480;2023-07-31T01:59:55;17.70;75.80
1347;DHT22;667;48.796;9.480;2023-07-31T02:02:21;17.70;76.30
1347;DHT22;667;48.796;9.480;2023-07-31T02:04:48;17.60;76.30
1347;DHT22;667;48.796;9.480;2023-07-31T02:07:14;17.70;76.50
1347;DHT22;667;48.796;9.480;2023-07-31T02:09:39;17.60;76.40
1347;DHT22;667;48.796;9.480;2023-07-31T02:12:05;17.60;76.20
1347;DHT22;667;48.796;9.480;2023-07-31T02:14:31;17.60;76.30
1347;DHT22;667;48.796;9.480;2023-07-31T02:16:56;17.60;76.40
1347;DHT22;667;48.796;9.480;2023-07-31T02:19:22;17.60;76.50
1347;DHT22;667;48.796;9.480;2023-07-31T02:21:47;17.60;76.40
1347;DHT22;667;48.796;9.480;2023-07-31T02:24:13;17.60;76.50
1347;DHT22;667;48.796;9.480;2023-07-31T02:26:39;17.60;76.50
1347;DHT22;667;48.796;9.480;2023-07-31T02:29:04;17.50;76.50
1347;DHT22;667;48.796;9.480;2023-07-31T02:31:30;17.50;76.50
1347;DHT22;667;48.796;9.480;2023-07-31T02:33:55;17.50;76.40
1347;DHT22;667;48.796;9.480;2023-07-31T02:36:21;17.50;76.30
1347;DHT22;667;48.796;9.480;2023-07-31T02:38:46;17.50;76.10
1347;DHT22;667;48.796;9.480;2023-07-31T02:41:12;17.50;75.80
1347;DHT22;667;48.796;9.480;2023-07-31T02:43:37;17.40;76.00
1347;DHT22;667;48.796;9.480;2023-07-31T02:46:03;17.40;75.70
1347;DHT22;667;48.796;9.480;2023-07-31T02:48:28;17.40;75.90
1347;DHT22;667;48.796;9.480;2023-07-31T02:50:54;17.30;76.00
1347;DHT22;667;48.796;9.480;2023-07-31T02:53:20;17.30;76.40
1347;DHT22;667;48.796;9.480;2023-07-31T02:55:45;17.30;76.30
1347;DHT22;667;48.796;9.480;2023-07-31T02:58:11;17.30;77.40
1347;DHT22;667;48.796;9.480;2023-07-31T03:00:42;17.30;76.50
1347;DHT22;667;48.796;9.480;2023-07-31T03:03:07;17.30;76.70
1347;DHT22;667;48.796;9.480;2023-07-31T03:05:33;17.30;76.70
1347;DHT22;667;48.796;9.480;2023-07-31T03:07:58;17.30;76.80
1347;DHT22;667;48.796;9.480;2023-07-31T03:10:24;17.20;76.70
1347;DHT22;667;48.796;9.480;2023-07-31T03:12:49;17.30;76.60
1347;DHT22;667;48.796;9.480;2023-07-31T03:15:15;17.30;76.30
1347;DHT22;667;48.796;9.480;2023-07-31T03:17:41;17.20;76.10
1347;DHT22;667;48.796;9.480;2023-07-31T03:20:06;17.20;76.10
1347;DHT22;667;48.796;9.480;2023-07-31T03:22:33;17.20;76.00
1347;DHT22;667;48.796;9.480;2023-07-31T03:25:01;17.20;76.50
1347;DHT22;667;48.796;9.480;2023-07-31T03:27:26;17.10;76.50
1347;DHT22;667;48.796;9.480;2023-07-31T03:29:52;17.20;76.60
1347;DHT22;667;48.796;9.480;2023-07-31T03:32:17;17.10;76.20
1347;DHT22;667;48.796;9.480;2023-07-31T03:34:43;17.20;76.10
1347;DHT22;667;48.796;9.480;2023-07-31T03:37:08;17.10;75.70
1347;DHT22;667;48.796;9.480;2023-07-31T03:39:35;17.10;75.90
1347;DHT22;667;48.796;9.480;2023-07-31T03:42:00;17.10;76.40
1347;DHT22;667;48.796;9.480;2023-07-31T03:44:26;17.10;76.50
1347;DHT22;667;48.796;9.480;2023-07-31T03:46:51;17.10;76.90
1347;DHT22;667;48.796;9.480;2023-07-31T03:49:17;17.10;77.10
1347;DHT22;667;48.796;9.480;2023-07-31T03:51:42;17.10;76.80
1347;DHT22;667;48.796;9.480;2023-07-31T03:54:08;17.10;76.30
1347;DHT22;667;48.796;9.480;2023-07-31T03:56:34;17.10;76.60
1347;DHT22;667;48.796;9.480;2023-07-31T03:58:59;17.10;76.70
1347;DHT22;667;48.796;9.480;2023-07-31T04:01:26;17.10;76.90
1347;DHT22;667;48.796;9.480;2023-07-31T04:03:51;17.00;76.90
1347;DHT22;667;48.796;9.480;2023-07-31T04:06:17;17.10;76.90
1347;DHT22;667;48.796;9.480;2023-07-31T04:08:44;17.10;77.10
1347;DHT22;667;48.796;9.480;2023-07-31T04:11:10;17.10;77.20
1347;DHT22;667;48.796;9.480;2023-07-31T04:13:36;17.00;77.20
1347;DHT22;667;48.796;9.480;2023-07-31T04:16:02;17.00;77.10
1347;DHT22;667;48.796;9.480;2023-07-31T04:18:28;17.00;76.80
1347;DHT22;667;48.796;9.480;2023-07-31T04:20:56;17.00;77.00
1347;DHT22;667;48.796;9.480;2023-07-31T04:23:22;17.00;77.30
1347;DHT22;667;48.796;9.480;2023-07-31T04:25:47;17.00;77.70
1347;DHT22;667;48.796;9.480;2023-07-31T04:28:13;17.00;78.00
1347;DHT22;667;48.796;9.480;2023-07-31T04:30:39;17.00;78.00
1347;DHT22;667;48.796;9.480;2023-07-31T04:33:04;17.10;78.10
1347;DHT22;667;48.796;9.480;2023-07-31T04:35:30;17.00;77.80
1347;DHT22;667;48.796;9.480;2023-07-31T04:37:55;17.00;78.60
1347;DHT22;667;48.796;9.480;2023-07-31T04:40:21;17.00;78.50
1347;DHT22;667;48.796;9.480;2023-07-31T04:42:47;17.10;78.70
1347;DHT22;667;48.796;9.480;2023-07-31T04:45:12;17.10;78.70
1347;DHT22;667;48.796;9.480;2023-07-31T04:47:38;17.10;78.80
1347;DHT22;667;48.796;9.480;2023-07-31T04:50:04;17.20;79.00
1347;DHT22;667;48.796;9.480;2023-07-31T04:52:29;17.20;79.20
1347;DHT22;667;48.796;9.480;2023-07-31T04:54:55;17.20;79.30
1347;DHT22;667;48.796;9.480;2023-07-31T04:57:20;17.20;79.40
1347;DHT22;667;48.796;9.480;2023-07-31T04:59:46;17.30;79.70
1347;DHT22;667;48.796;9.480;2023-07-31T05:02:12;17.30;79.80
1347;DHT22;667;48.796;9.480;2023-07-31T05:04:38;17.40;79.90
1347;DHT22;667;48.796;9.480;2023-07-31T05:07:04;17.40;79.90
1347;DHT22;667;48.796;9.480;2023-07-31T05:09:30;17.40;80.00
1347;DHT22;667;48.796;9.480;2023-07-31T05:11:55;17.50;80.30
1347;DHT22;667;48.796;9.480;2023-07-31T05:14:21;17.50;80.50
1347;DHT22;667;48.796;9.480;2023-07-31T05:16:46;17.50;80.60
1347;DHT22;667;48.796;9.480;2023-07-31T05:19:12;17.60;80.90
1347;DHT22;667;48.796;9.480;2023-07-31T05:21:38;17.60;81.10
1347;DHT22;667;48.796;9.480;2023-07-31T05:24:03;17.70;81.20
1347;DHT22;667;48.796;9.480;2023-07-31T05:26:29;17.70;80.70
1347;DHT22;667;48.796;9.480;2023-07-31T05:28:54;17.70;80.40
1347;DHT22;667;48.796;9.480;2023-07-31T05:31:20;17.70;80.20
1347;DHT22;667;48.796;9.480;2023-07-31T05:33:47;17.80;80.40
1347;DHT22;667;48.796;9.480;2023-07-31T05:36:15;17.80;80.10
1347;DHT22;667;48.796;9.480;2023-07-31T05:38:41;17.90;80.40
1347;DHT22;667;48.796;9.480;2023-07-31T05:41:07;17.90;80.60
1347;DHT22;667;48.796;9.480;2023-07-31T05:43:33;17.90;80.40
1347;DHT22;667;48.796;9.480;2023-07-31T05:45:58;17.90;80.00
1347;DHT22;667;48.796;9.480;2023-07-31T05:48:24;18.00;80.30
1347;DHT22;667;48.796;9.480;2023-07-31T05:50:49;18.00;80.60
1347;DHT22;667;48.796;9.480;2023-07-31T05:53:15;18.00;80.40
1347;DHT22;667;48.796;9.480;2023-07-31T05:55:40;18.00;80.00
1347;DHT22;667;48.796;9.480;2023-07-31T05:58:06;18.10;80.10
1347;DHT22;667;48.796;9.480;2023-07-31T06:00:31;18.10;80.30
1347;DHT22;667;48.796;9.480;2023-07-31T06:02:57;18.20;79.60
1347;DHT22;667;48.796;9.480;2023-07-31T06:05:22;18.20;78.20
1347;DHT22;667;48.796;9.480;2023-07-31T06:07:48;18.30;78.10
1347;DHT22;667;48.796;9.480;2023-07-31T06:10:14;18.40;77.10
1347;DHT22;667;48.796;9.480;2023-07-31T06:12:39;18.40;76.00
1347;DHT22;667;48.796;9.480;2023-07-31T06:15:05;18.50;75.80
1347;DHT22;667;48.796;9.480;2023-07-31T06:17:31;18.60;74.40
1347;DHT22;667;48.796;9.480;2023-07-31T06:19:57;18.70;74.20
1347;DHT22;667;48.796;9.480;2023-07-31T06:22:22;18.70;74.10
1347;DHT22;667;48.796;9.480;2023-07-31T06:24:48;18.80;73.80
1347;DHT22;667;48.796;9.480;2023-07-31T06:27:13;18.90;73.30
1347;DHT22;667;48.796;9.480;2023-07-31T06:29:39;18.90;72.70
1347;DHT22;667;48.796;9.480;2023-07-31T06:32:05;19.00;72.00
1347;DHT22;667;48.796;9.480;2023-07-31T06:34:30;19.10;71.10
1347;DHT22;667;48.796;9.480;2023-07-31T06:36:56;19.20;71.40
1347;DHT22;667;48.796;9.480;2023-07-31T06:39:22;19.20;71.50
1347;DHT22;667;48.796;9.480;2023-07-31T06:41:47;19.30;70.90
1347;DHT22;667;48.796;9.480;2023-07-31T06:44:13;19.40;70.00
1347;DHT22;667;48.796;9.480;2023-07-31T06:46:38;19.50;69.80
1347;DHT22;667;48.796;9.480;2023-07-31T06:49:04;19.60;69.20
1347;DHT22;667;48.796;9.480;2023-07-31T06:51:29;19.60;68.50
1347;DHT22;667;48.796;9.480;2023-07-31T06:53:57;19.70;69.20
1347;DHT22;667;48.796;9.480;2023-07-31T06:56:23;19.80;69.60
1347;DHT22;667;48.796;9.480;2023-07-31T06:58:48;19.80;69.00
1347;DHT22;667;48.796;9.480;2023-07-31T07:01:14;19.80;69.00
1347;DHT22;667;48.796;9.480;2023-07-31T07:03:39;19.80;68.90
1347;DHT22;667;48.796;9.480;2023-07-31T07:06:05;19.90;69.00
1347;DHT22;667;48.796;9.480;2023-07-31T07:08:30;19.90;68.90
1347;DHT22;667;48.796;9.480;2023-07-31T07:10:56;20.00;68.90
1347;DHT22;667;48.796;9.480;2023-07-31T07:13:22;20.10;67.90
1347;DHT22;667;48.796;9.480;2023-07-31T07:15:49;20.20;68.40
1347;DHT22;667;48.796;9.480;2023-07-31T07:18:15;20.20;68.80
1347;DHT22;667;48.796;9.480;2023-07-31T07:20:41;20.30;67.60
1347;DHT22;667;48.796;9.480;2023-07-31T07:23:06;20.30;67.40
1347;DHT22;667;48.796;9.480;2023-07-31T07:25:32;20.30;66.80
1347;DHT22;667;48.796;9.480;2023-07-31T07:27:57;20.40;67.70
1347;DHT22;667;48.796;9.480;2023-07-31T07:30:23;20.40;67.80
1347;DHT22;667;48.796;9.480;2023-07-31T07:32:50;20.40;67.60
1347;DHT22;667;48.796;9.480;2023-07-31T07:35:16;20.50;66.80
1347;DHT22;667;48.796;9.480;2023-07-31T07:37:41;20.60;66.80
1347;DHT22;667;48.796;9.480;2023-07-31T07:40:07;20.70;66.10
1347;DHT22;667;48.796;9.480;2023-07-31T07:42:33;20.70;66.20
1347;DHT22;667;48.796;9.480;2023-07-31T07:44:58;20.70;66.40
1347;DHT22;667;48.796;9.480;2023-07-31T07:47:24;20.80;65.70
1347;DHT22;667;48.796;9.480;2023-07-31T07:49:49;20.80;66.00
1347;DHT22;667;48.796;9.480;2023-07-31T07:52:15;20.80;65.90
1347;DHT22;667;48.796;9.480;2023-07-31T07:54:40;20.90;65.70
1347;DHT22;667;48.796;9.480;2023-07-31T07:57:06;20.90;65.90
1347;DHT22;667;48.796;9.480;2023-07-31T07:59:32;21.00;66.50
1347;DHT22;667;48.796;9.480;2023-07-31T08:01:57;21.00;66.30
1347;DHT22;667;48.796;9.480;2023-07-31T08:04:23;21.00;66.20
1347;DHT22;667;48.796;9.480;2023-07-31T08:06:48;21.10;66.00
1347;DHT22;667;48.796;9.480;2023-07-31T08:09:14;21.20;65.90
1347;DHT22;667;48.796;9.480;2023-07-31T08:11:39;21.30;65.40
1347;DHT22;667;48.796;9.480;2023-07-31T08:14:05;21.40;65.30
1347;DHT22;667;48.796;9.480;2023-07-31T08:16:31;21.50;65.40
1347;DHT22;667;48.796;9.480;2023-07-31T08:18:56;21.60;63.80
1347;DHT22;667;48.796;9.480;2023-07-31T08:21:22;21.60;64.00
1347;DHT22;667;48.796;9.480;2023-07-31T08:23:48;21.70;63.80
1347;DHT22;667;48.796;9.480;2023-07-31T08:26:18;21.80;62.60
1347;DHT22;667;48.796;9.480;2023-07-31T08:28:44;21.90;61.90
1347;DHT22;667;48.796;9.480;2023-07-31T08:31:09;22.00;61.60
1347;DHT22;667;48.796;9.480;2023-07-31T08:33:36;22.00;62.00
1347;DHT22;667;48.796;9.480;2023-07-31T08:36:02;22.10;62.70
1347;DHT22;667;48.796;9.480;2023-07-31T08:38:27;22.20;61.40
1347;DHT22;667;48.796;9.480;2023-07-31T08:40:56;22.30;62.00
1347;DHT22;667;48.796;9.480;2023-07-31T08:43:25;22.40;62.50
1347;DHT22;667;48.796;9.480;2023-07-31T08:45:51;22.40;62.20
1347;DHT22;667;48.796;9.480;2023-07-31T08:48:17;22.50;62.10
1347;DHT22;667;48.796;9.480;2023-07-31T08:50:43;22.60;61.00
1347;DHT22;667;48.796;9.480;2023-07-31T08:53:09;22.70;61.00
1347;DHT22;667;48.796;9.480;2023-07-31T08:55:35;22.80;59.80
1347;DHT22;667;48.796;9.480;2023-07-31T08:58:03;22.80;60.10
1347;DHT22;667;48.796;9.480;2023-07-31T09:00:29;22.80;59.60
1347;DHT22;667;48.796;9.480;2023-07-31T09:03:00;22.80;58.80
1347;DHT22;667;48.796;9.480;2023-07-31T09:05:31;22.90;58.50
1347;DHT22;667;48.796;9.480;2023-07-31T09:07:57;22.90;58.60
1347;DHT22;667;48.796;9.480;2023-07-31T09:10:23;23.00;59.00
1347;DHT22;667;48.796;9.480;2023-07-31T09:12:51;23.00;58.20
1347;DHT22;667;48.796;9.480;2023-07-31T09:15:17;23.10;57.90
1347;DHT22;667;48.796;9.480;2023-07-31T09:17:42;23.20;58.20
1347;DHT22;667;48.796;9.480;2023-07-31T09:20:21;23.30;57.70
1347;DHT22;667;48.796;9.480;2023-07-31T09:22:48;23.40;57.80
1347;DHT22;667;48.796;9.480;2023-07-31T09:25:17;23.40;57.80
1347;DHT22;667;48.796;9.480;2023-07-31T09:30:15;23.50;56.90
1347;DHT22;667;48.796;9.480;2023-07-31T09:32:43;23.60;57.70
1347;DHT22;667;48.796;9.480;2023-07-31T09:35:21;23.60;57.30
1347;DHT22;667;48.796;9.480;2023-07-31T09:37:52;23.70;56.40
1347;DHT22;667;48.796;9.480;2023-07-31T09:40:34;23.70;56.80
1347;DHT22;667;48.796;9.480;2023-07-31T09:43:02;23.70;57.50
1347;DHT22;667;48.796;9.480;2023-07-31T09:45:28;23.80;57.00
1347;DHT22;667;48.796;9.480;2023-07-31T09:47:55;23.90;55.50
1347;DHT22;667;48.796;9.480;2023-07-31T09:50:24;23.90;55.60
1347;DHT22;667;48.796;9.480;2023-07-31T09:52:51;23.90;56.40
1347;DHT22;667;48.796;9.480;2023-07-31T09:55:18;24.00;56.60
1347;DHT22;667;48.796;9.480;2023-07-31T09:57:48;24.10;56.70
1347;DHT22;667;48.796;9.480;2023-07-31T10:00:16;24.20;57.50
1347;DHT22;667;48.796;9.480;2023-07-31T10:02:44;24.30;56.60
1347;DHT22;667;48.796;9.480;2023-07-31T10:05:15;24.40;56.00
1347;DHT22;667;48.796;9.480;2023-07-31T10:07:45;24.40;55.20
1347;DHT22;667;48.796;9.480;2023-07-31T10:10:15;24.40;55.00
1347;DHT22;667;48.796;9.480;2023-07-31T10:12:42;24.40;55.00
1347;DHT22;667;48.796;9.480;2023-07-31T10:15:09;24.40;55.60
1347;DHT22;667;48.796;9.480;2023-07-31T10:17:35;24.40;55.00
1347;DHT22;667;48.796;9.480;2023-07-31T10:20:02;24.40;55.40
1347;DHT22;667;48.796;9.480;2023-07-31T10:22:31;24.30;54.90
1347;DHT22;667;48.796;9.480;2023-07-31T10:24:58;24.30;55.30
1347;DHT22;667;48.796;9.480;2023-07-31T10:27:24;24.30;53.80
1347;DHT22;667;48.796;9.480;2023-07-31T10:29:52;24.20;53.90
1347;DHT22;667;48.796;9.480;2023-07-31T10:32:20;24.20;54.80
1347;DHT22;667;48.796;9.480;2023-07-31T10:34:46;24.10;54.80
1347;DHT22;667;48.796;9.480;2023-07-31T10:37:28;24.10;54.50
1347;DHT22;667;48.796;9.480;2023-07-31T10:39:59;24.20;54.80
1347;DHT22;667;48.796;9.480;2023-07-31T10:42:33;24.30;54.70
1347;DHT22;667;48.796;9.480;2023-07-31T10:45:01;24.30;55.70
1347;DHT22;667;48.796;9.480;2023-07-31T10:47:27;24.50;55.50
1347;DHT22;667;48.796;9.480;2023-07-31T10:49:54;24.60;55.40
1347;DHT22;667;48.796;9.480;2023-07-31T10:52:35;24.80;55.70
1347;DHT22;667;48.796;9.480;2023-07-31T10:58:18;25.00;54.10
1347;DHT22;667;48.796;9.480;2023-07-31T11:00:44;25.00;53.70
1347;DHT22;667;48.796;9.480;2023-07-31T11:03:15;24.90;54.20
1347;DHT22;667;48.796;9.480;2023-07-31T11:05:42;24.90;53.60
1347;DHT22;667;48.796;9.480;2023-07-31T11:08:22;24.90;53.90
1347;DHT22;667;48.796;9.480;2023-07-31T11:10:51;24.80;54.00
1347;DHT22;667;48.796;9.480;2023-07-31T11:13:17;24.80;54.20
1347;DHT22;667;48.796;9.480;2023-07-31T11:15:42;24.80;54.80
1347;DHT22;667;48.796;9.480;2023-07-31T11:18:08;24.80;54.40
1347;DHT22;667;48.796;9.480;2023-07-31T11:20:37;24.90;54.60
1347;DHT22;667;48.796;9.480;2023-07-31T11:23:05;25.00;53.80
1347;DHT22;667;48.796;9.480;2023-07-31T11:25:31;24.90;53.90
1347;DHT22;667;48.796;9.480;2023-07-31T11:28:03;24.90;54.70
1347;DHT22;667;48.796;9.480;2023-07-31T11:30:28;25.00;54.70
1347;DHT22;667;48.796;9.480;2023-07-31T11:32:55;25.00;53.30
1347;DHT22;667;48.796;9.480;2023-07-31T11:35:21;25.00;53.50
1347;DHT22;667;48.796;9.480;2023-07-31T11:37:50;24.90;53.60
1347;DHT22;667;48.796;9.480;2023-07-31T11:40:16;24.90;53.80
1347;DHT22;667;48.796;9.480;2023-07-31T11:42:42;25.00;53.00
1347;DHT22;667;48.796;9.480;2023-07-31T11:45:08;24.90;53.00
1347;DHT22;667;48.796;9.480;2023-07-31T11:47:36;24.80;53.60
1347;DHT22;667;48.796;9.480;2023-07-31T11:50:06;24.80;54.20
1347;DHT22;667;48.796;9.480;2023-07-31T11:52:42;24.80;53.20
1347;DHT22;667;48.796;9.480;2023-07-31T11:55:09;24.70;53.30
1347;DHT22;667;48.796;9.480;2023-07-31T11:57:37;24.60;53.90
1347;DHT22;667;48.796;9.480;2023-07-31T12:00:06;24.60;53.90
1347;DHT22;667;48.796;9.480;2023-07-31T12:02:32;24.60;53.20
1347;DHT22;667;48.796;9.480;2023-07-31T12:04:58;24.50;53.00
1347;DHT22;667;48.796;9.480;2023-07-31T12:07:24;24.50;53.70
1347;DHT22;667;48.796;9.480;2023-07-31T12:09:56;24.50;54.30
1347;DHT22;667;48.796;9.480;2023-07-31T12:12:23;24.40;54.80
1347;DHT22;667;48.796;9.480;2023-07-31T12:14:49;24.40;55.10
1347;DHT22;667;48.796;9.480;2023-07-31T12:17:16;24.40;54.90
1347;DHT22;667;48.796;9.480;2023-07-31T12:19:42;24.40;54.80
1347;DHT22;667;48.796;9.480;2023-07-31T12:22:12;24.40;54.90
1347;DHT22;667;48.796;9.480;2023-07-31T12:24:40;24.40;54.70
1347;DHT22;667;48.796;9.480;2023-07-31T12:27:10;24.40;54.60
1347;DHT22;667;48.796;9.480;2023-07-31T12:29:37;24.40;55.00
1347;DHT22;667;48.796;9.480;2023-07-31T12:32:03;24.30;55.30
1347;DHT22;667;48.796;9.480;2023-07-31T12:34:29;24.30;55.10
1347;DHT22;667;48.796;9.480;2023-07-31T12:36:55;24.30;55.20
1347;DHT22;667;48.796;9.480;2023-07-31T12:39:20;24.30;55.00
1347;DHT22;667;48.796;9.480;2023-07-31T12:41:46;24.30;55.30
1347;DHT22;667;48.796;9.480;2023-07-31T12:44:11;24.30;55.60
1347;DHT22;667;48.796;9.480;2023-07-31T12:46:37;24.30;55.80
1347;DHT22;667;48.796;9.480;2023-07-31T12:49:02;24.30;55.50
1347;DHT22;667;48.796;9.480;2023-07-31T12:51:28;24.30;55.40
1347;DHT22;667;48.796;9.480;2023-07-31T12:53:54;24.30;55.50
1347;DHT22;667;48.796;9.480;2023-07-31T12:56:19;24.30;55.60
1347;DHT22;667;48.796;9.480;2023-07-31T12:58:45;24.30;55.60
1347;DHT22;667;48.796;9.480;2023-07-31T13:01:10;24.20;55.70
1347;DHT22;667;48.796;9.480;2023-07-31T13:03:36;24.20;55.80
1347;DHT22;667;48.796;9.480;2023-07-31T13:06:01;24.20;56.70
1347;DHT22;667;48.796;9.480;2023-07-31T13:08:27;24.20;56.50
1347;DHT22;667;48.796;9.480;2023-07-31T13:10:53;24.20;56.50
1347;DHT22;667;48.796;9.480;2023-07-31T13:13:18;24.10;56.40
1347;DHT22;667;48.796;9.480;2023-07-31T13:15:44;24.10;56.30
1347;DHT22;667;48.796;9.480;2023-07-31T13:18:10;24.10;56.60
1347;DHT22;667;48.796;9.480;2023-07-31T13:20:36;24.10;56.50
1347;DHT22;667;48.796;9.480;2023-07-31T13:23:01;24.10;56.50
1347;DHT22;667;48.796;9.480;2023-07-31T13:25:27;24.10;56.60
1347;DHT22;667;48.796;9.480;2023-07-31T13:27:52;24.10;56.50
1347;DHT22;667;48.796;9.480;2023-07-31T13:30:18;24.00;56.10
1347;DHT22;667;48.796;9.480;2023-07-31T13:32:44;24.00;56.40
1347;DHT22;667;48.796;9.480;2023-07-31T13:35:09;24.00;56.70
1347;DHT22;667;48.796;9.480;2023-07-31T13:37:36;24.00;56.50
1347;DHT22;667;48.796;9.480;2023-07-31T13:40:02;23.90;56.80
1347;DHT22;667;48.796;9.480;2023-07-31T13:42:30;23.90;57.00
1347;DHT22;667;48.796;9.480;2023-07-31T13:44:56;23.90;57.10
1347;DHT22;667;48.796;9.480;2023-07-31T13:47:22;23.90;57.00
1347;DHT22;667;48.796;9.480;2023-07-31T13:49:47;23.90;56.80
1347;DHT22;667;48.796;9.480;2023-07-31T13:52:13;23.90;56.70
1347;DHT22;667;48.796;9.480;2023-07-31T13:54:38;23.90;57.00
1347;DHT22;667;48.796;9.480;2023-07-31T13:57:04;23.90;57.10
1347;DHT22;667;48.796;9.480;2023-07-31T13:59:30;23.90;57.30
1347;DHT22;667;48.796;9.480;2023-07-31T14:01:55;23.90;57.70
1347;DHT22;667;48.796;9.480;2023-07-31T14:04:21;23.90;57.80
1347;DHT22;667;48.796;9.480;2023-07-31T14:06:46;23.90;57.80
1347;DHT22;667;48.796;9.480;2023-07-31T14:09:13;23.90;57.70
1347;DHT22;667;48.796;9.480;2023-07-31T14:11:39;23.90;57.50
1347;DHT22;667;48.796;9.480;2023-07-31T14:14:05;23.90;57.10
1347;DHT22;667;48.796;9.480;2023-07-31T14:16:31;23.90;57.30
1347;DHT22;667;48.796;9.480;2023-07-31T14:18:56;23.90;57.50
1347;DHT22;667;48.796;9.480;2023-07-31T14:21:25;23.90;57.80
1347;DHT22;667;48.796;9.480;2023-07-31T14:23:50;24.00;58.00
1347;DHT22;667;48.796;9.480;2023-07-31T14:26:16;24.00;57.90
1347;DHT22;667;48.796;9.480;2023-07-31T14:28:42;24.10;58.10
1347;DHT22;667;48.796;9.480;2023-07-31T14:31:07;24.10;58.00
1347;DHT22;667;48.796;9.480;2023-07-31T14:33:33;24.10;57.80
1347;DHT22;667;48.796;9.480;2023-07-31T14:35:59;24.20;58.10
1347;DHT22;667;48.796;9.480;2023-07-31T14:38:24;24.20;58.40
1347;DHT22;667;48.796;9.480;2023-07-31T14:40:51;24.20;58.30
1347;DHT22;667;48.796;9.480;2023-07-31T14:43:16;24.30;58.30
1347;DHT22;667;48.796;9.480;2023-07-31T14:45:42;24.30;57.70
1347;DHT22;667;48.796;9.480;2023-07-31T14:48:07;24.30;57.60
1347;DHT22;667;48.796;9.480;2023-07-31T14:50:33;24.30;57.20
1347;DHT22;667;48.796;9.480;2023-07-31T14:52:59;24.40;56.60
1347;DHT22;667;48.796;9.480;2023-07-31T14:55:25;24.40;57.00
1347;DHT22;667;48.796;9.480;2023-07-31T14:57:50;24.40;57.60
1347;DHT22;667;48.796;9.480;2023-07-31T15:00:16;24.40;57.50
1347;DHT22;667;48.796;9.480;2023-07-31T15:02:42;24.40;57.10
1347;DHT22;667;48.796;9.480;2023-07-31T15:05:08;24.50;57.20
1347;DHT22;667;48.796;9.480;2023-07-31T15:07:34;24.50;56.90
1347;DHT22;667;48.796;9.480;2023-07-31T15:10:00;24.40;57.10
1347;DHT22;667;48.796;9.480;2023-07-31T15:12:26;24.50;56.90
1347;DHT22;667;48.796;9.480;2023-07-31T15:14:52;24.40;56.60
1347;DHT22;667;48.796;9.480;2023-07-31T15:17:18;24.40;56.80
1347;DHT22;667;48.796;9.480;2023-07-31T15:19:44;24.40;57.20
1347;DHT22;667;48.796;9.480;2023-07-31T15:22:09;24.40;57.70
1347;DHT22;667;48.796;9.480;2023-07-31T15:24:35;24.50;58.10
1347;DHT22;667;48.796;9.480;2023-07-31T15:27:01;24.50;58.20
1347;DHT22;667;48.796;9.480;2023-07-31T15:29:28;24.50;58.40
1347;DHT22;667;48.796;9.480;2023-07-31T15:31:54;24.50;58.60
1347;DHT22;667;48.796;9.480;2023-07-31T15:34:19;24.50;58.60
1347;DHT22;667;48.796;9.480;2023-07-31T15:36:46;24.60;58.90
1347;DHT22;667;48.796;9.480;2023-07-31T15:39:11;24.60;58.80
1347;DHT22;667;48.796;9.480;2023-07-31T15:41:37;24.70;57.50
1347;DHT22;667;48.796;9.480;2023-07-31T15:44:06;24.70;57.60
1347;DHT22;667;48.796;9.480;2023-07-31T15:46:32;24.70;56.90
1347;DHT22;667;48.796;9.480;2023-07-31T15:48:58;24.70;56.50
1347;DHT22;667;48.796;9.480;2023-07-31T15:51:24;24.70;56.60
1347;DHT22;667;48.796;9.480;2023-07-31T15:53:50;24.70;56.90
1347;DHT22;667;48.796;9.480;2023-07-31T15:56:16;24.70;56.80
1347;DHT22;667;48.796;9.480;2023-07-31T15:58:42;24.60;56.50
1347;DHT22;667;48.796;9.480;2023-07-31T16:01:08;24.60;56.80
1347;DHT22;667;48.796;9.480;2023-07-31T16:03:33;24.60;57.40
1347;DHT22;667;48.796;9.480;2023-07-31T16:05:59;24.70;57.30
1347;DHT22;667;48.796;9.480;2023-07-31T16:08:24;24.60;56.70
1347;DHT22;667;48.796;9.480;2023-07-31T16:10:50;24.60;56.20
1347;DHT22;667;48.796;9.480;2023-07-31T16:13:16;24.60;56.60
1347;DHT22;667;48.796;9.480;2023-07-31T16:15:42;24.60;57.00
1347;DHT22;667;48.796;9.480;2023-07-31T16:18:07;24.60;57.30
1347;DHT22;667;48.796;9.480;2023-07-31T16:20:33;24.60;57.50
1347;DHT22;667;48.796;9.480;2023-07-31T16:22:59;24.50;56.90